Time;durP1;ratioP1;P1;durP2;ratioP2;P2;SDS_P1;SDS_P2;PMS_P1;PMS_P2;Temp;Humidity;BMP_temperature;BMP_pressure;BME280_temperature;BME280_humidity;BME280_pressure;Samples;Min_cycle;Max_cycle;Signal;HPM_P1;HPM_P2
2021/08/07 00:01:54;;;;;;;3.58;1.50;;;;;;;18.06;100.00;98161.44;1759129;80;20393;-70
2021/08/07 00:04:31;;;;;;;4.30;1.40;;;;;;;18.03;100.00;98159.39;1752562;80;20966;-70
2021/08/07 00:07:11;;;;;;;2.80;1.50;;;;;;;18.00;100.00;98159.56;1747763;80;21520;-70
2021/08/07 00:09:40;;;;;;;5.80;1.67;;;;;;;17.96;100.00;98169.49;1766545;80;21415;-70
2021/08/07 00:12:12;;;;;;;2.70;1.75;;;;;;;17.93;100.00;98172.31;1769919;80;20935;-70
2021/08/07 00:14:44;;;;;;;2.40;1.40;;;;;;;17.88;100.00;98173.03;1751067;81;21019;-70
2021/08/07 00:17:12;;;;;;;3.00;1.42;;;;;;;17.87;100.00;98184.17;1749545;80;21430;-70
2021/08/07 00:19:41;;;;;;;1.95;1.40;;;;;;;17.86;100.00;98177.11;1766144;81;21281;-70
2021/08/07 00:22:12;;;;;;;2.65;1.27;;;;;;;17.85;100.00;98178.52;1750640;81;20856;-70
2021/08/07 00:24:42;;;;;;;1.50;1.10;;;;;;;17.82;100.00;98174.67;1750717;82;20908;-70
2021/08/07 00:27:11;;;;;;;1.15;0.75;;;;;;;17.79;100.00;98177.03;1753445;81;21545;-70
2021/08/07 00:29:52;;;;;;;2.83;1.00;;;;;;;17.81;100.00;98183.62;1739452;81;21556;-70
2021/08/07 00:32:15;;;;;;;3.55;0.98;;;;;;;17.83;100.00;98197.74;1747866;81;21378;-70
2021/08/07 00:34:44;;;;;;;3.98;1.10;;;;;;;17.83;100.00;98193.73;1742599;81;20885;-70
2021/08/07 00:37:15;;;;;;;3.60;0.70;;;;;;;17.83;100.00;98208.41;1741155;81;20918;-72
2021/08/07 00:39:45;;;;;;;1.77;0.80;;;;;;;17.83;100.00;98207.08;1734607;81;20967;-70
2021/08/07 00:42:19;;;;;;;1.35;0.90;;;;;;;17.85;100.00;98207.39;1783031;79;21462;-71
2021/08/07 00:44:50;;;;;;;2.65;0.90;;;;;;;17.86;100.00;98214.92;1780325;80;20951;-70
2021/08/07 00:47:22;;;;;;;1.98;0.90;;;;;;;17.86;100.00;98213.59;1771416;79;20951;-71
2021/08/07 00:49:50;;;;;;;3.90;0.88;;;;;;;17.87;100.00;98220.19;1761530;80;21068;-71
2021/08/07 00:52:33;;;;;;;2.02;0.80;;;;;;;17.87;100.00;98223.32;1748858;81;21449;-71
2021/08/07 00:55:00;;;;;;;1.40;0.70;;;;;;;17.88;100.00;98225.05;1744986;81;21039;-71
2021/08/07 00:57:31;;;;;;;1.12;1.00;;;;;;;17.88;100.00;98227.72;1757850;80;21532;-71
2021/08/07 01:00:02;;;;;;;3.15;0.80;;;;;;;17.86;100.00;98234.47;1743577;81;21477;-71
2021/08/07 01:02:36;;;;;;;0.75;0.70;;;;;;;17.85;100.00;98238.08;1788582;80;21532;-70
2021/08/07 01:05:15;;;;;;;7.00;1.30;;;;;;;17.83;100.00;98235.09;1755156;81;21641;-70
2021/08/07 01:08:21;;;;;;;3.17;0.78;;;;;;;17.83;100.00;98231.09;1753474;81;20911;-70
2021/08/07 01:11:19;;;;;;;3.70;1.20;;;;;;;17.84;100.00;98230.15;1752352;81;21126;-70
2021/08/07 01:13:54;;;;;;;4.80;1.30;;;;;;;17.84;100.00;98236.34;1731683;82;20907;-70
2021/08/07 01:16:30;;;;;;;2.33;0.95;;;;;;;17.83;100.00;98236.42;1768054;80;20952;-70
2021/08/07 01:19:02;;;;;;;2.05;1.12;;;;;;;17.85;100.00;98236.73;1781835;80;20940;-70
2021/08/07 01:21:37;;;;;;;0.88;0.78;;;;;;;17.87;100.00;98248.20;1742003;81;21046;-70
2021/08/07 01:24:17;;;;;;;2.02;1.17;;;;;;;17.88;100.00;98246.39;1740547;80;21386;-70
2021/08/07 01:27:25;;;;;;;2.22;0.90;;;;;;;17.87;100.00;98241.53;1777816;80;20884;-71
2021/08/07 01:29:57;;;;;;;2.25;0.80;;;;;;;17.89;100.00;98244.12;1755558;81;21462;-70
2021/08/07 01:32:31;;;;;;;0.72;0.70;;;;;;;17.89;100.00;98250.79;1754540;81;20849;-71
2021/08/07 01:35:00;;;;;;;2.47;1.00;;;;;;;17.88;100.00;98247.26;1755748;80;21026;-70
2021/08/07 01:37:29;;;;;;;2.95;0.95;;;;;;;17.87;100.00;98241.53;1772295;80;21531;-71
2021/08/07 01:40:06;;;;;;;1.77;1.00;;;;;;;17.87;100.00;98243.33;1747988;81;20915;-71
2021/08/07 01:42:43;;;;;;;2.22;1.35;;;;;;;17.88;100.00;98243.73;1744866;81;21571;-70
2021/08/07 01:45:15;;;;;;;4.25;0.85;;;;;;;17.88;100.00;98249.92;1741446;81;21057;-71
2021/08/07 01:48:10;;;;;;;3.00;1.00;;;;;;;17.87;100.00;98260.67;1747506;81;21536;-70
2021/08/07 01:50:54;;;;;;;1.32;0.88;;;;;;;17.85;100.00;98262.55;1753582;81;22016;-71
2021/08/07 01:53:27;;;;;;;4.15;0.88;;;;;;;17.85;100.00;98271.89;1766901;81;20963;-70
2021/08/07 01:56:19;;;;;;;2.80;0.95;;;;;;;17.85;100.00;98269.22;1745684;81;21454;-71
2021/08/07 01:58:52;;;;;;;2.02;1.10;;;;;;;17.83;100.00;98267.97;1753956;81;21442;-70
2021/08/07 02:01:31;;;;;;;3.20;0.98;;;;;;;17.82;100.00;98268.04;1771148;80;20927;-71
2021/08/07 02:04:01;;;;;;;2.27;1.05;;;;;;;17.81;100.00;98268.98;1746545;81;21410;-71
2021/08/07 02:06:32;;;;;;;1.27;1.17;;;;;;;17.80;100.00;98269.92;1745242;82;21494;-71
2021/08/07 02:09:01;;;;;;;1.57;1.10;;;;;;;17.77;100.00;98264.73;1756989;81;21496;-72
2021/08/07 02:11:32;;;;;;;2.80;1.37;;;;;;;17.73;100.00;98276.50;1747109;81;21003;-71
2021/08/07 02:14:02;;;;;;;3.27;1.00;;;;;;;17.67;100.00;98277.66;1749425;81;20946;-72
2021/08/07 02:16:32;;;;;;;1.65;1.07;;;;;;;17.63;100.00;98288.91;1736361;80;21552;-69
2021/08/07 02:19:02;;;;;;;2.08;1.10;;;;;;;17.60;100.00;98293.53;1744748;80;21562;-67
2021/08/07 02:21:36;;;;;;;2.85;1.30;;;;;;;17.59;100.00;98305.14;1729522;81;20947;-67
2021/08/07 02:24:06;;;;;;;4.75;1.00;;;;;;;17.55;100.00;98305.75;1729178;81;21474;-69
2021/08/07 02:26:38;;;;;;;2.30;1.10;;;;;;;17.52;100.00;98311.70;1765577;81;21489;-67
2021/08/07 02:29:07;;;;;;;1.92;0.70;;;;;;;17.52;100.00;98311.70;1758184;80;21574;-68
2021/08/07 02:31:40;;;;;;;1.32;1.10;;;;;;;17.53;100.00;98320.09;1770491;80;20874;-63
2021/08/07 02:34:10;;;;;;;3.93;1.33;;;;;;;17.55;100.00;98318.22;1770446;80;21071;-67
2021/08/07 02:36:41;;;;;;;;;;;;;;;17.55;100.00;98327.55;1769300;80;21513;-67
2021/08/07 02:39:12;;;;;;;2.58;1.25;;;;;;;17.55;100.00;98327.08;1735002;81;20420;-67
2021/08/07 02:41:42;;;;;;;3.62;1.65;;;;;;;17.56;100.00;98336.81;1753283;81;21524;-69
2021/08/07 02:44:13;;;;;;;2.45;1.62;;;;;;;17.60;100.00;98341.53;1727680;82;20998;-68
2021/08/07 02:46:46;;;;;;;3.27;2.60;;;;;;;17.60;100.00;98346.40;1756489;78;20971;-69
2021/08/07 02:49:18;;;;;;;4.75;4.35;;;;;;;17.60;100.00;98346.87;1721736;81;20955;-68
2021/08/07 02:51:52;;;;;;;4.50;3.47;;;;;;;17.60;100.00;98354.40;1777517;80;21104;-69
2021/08/07 02:54:23;;;;;;;8.20;2.95;;;;;;;17.61;100.00;98345.46;1756537;81;21147;-69
2021/08/07 02:56:56;;;;;;;7.03;3.50;;;;;;;17.66;100.00;98353.71;1760479;81;21422;-69
2021/08/07 02:59:33;;;;;;;5.42;3.40;;;;;;;17.66;100.00;98363.05;1725245;81;21442;-69
2021/08/07 03:02:04;;;;;;;6.37;3.60;;;;;;;17.66;100.00;98364.38;1725161;82;21458;-68
2021/08/07 03:04:36;;;;;;;;;;;;;;;17.65;100.00;98363.98;1758285;80;20987;-69
2021/08/07 03:07:08;;;;;;;5.62;2.75;;;;;;;17.63;100.00;98363.59;1758886;81;21947;-69
2021/08/07 03:09:39;;;;;;;6.25;3.37;;;;;;;17.64;100.00;98367.12;1751353;81;21757;-70
2021/08/07 03:12:11;;;;;;;6.70;3.45;;;;;;;17.64;100.00;98368.45;1765365;81;20927;-69
2021/08/07 03:14:45;;;;;;;5.30;2.87;;;;;;;17.62;100.00;98368.99;1766628;81;21473;-68
2021/08/07 03:17:18;;;;;;;6.72;2.12;;;;;;;17.60;100.00;98364.20;1732015;81;21430;-68
2021/08/07 03:19:49;;;;;;;7.47;2.70;;;;;;;17.60;100.00;98369.53;1752052;81;21425;-67
2021/08/07 03:22:24;;;;;;;6.58;1.85;;;;;;;17.63;100.00;98370.72;1726242;81;21877;-65
2021/08/07 03:24:55;;;;;;;5.22;1.72;;;;;;;17.65;100.00;98378.66;1740831;81;21030;-67
2021/08/07 03:27:27;;;;;;;4.60;1.82;;;;;;;17.65;100.00;98376.84;1740923;81;21512;-65
2021/08/07 03:29:58;;;;;;;4.03;1.80;;;;;;;17.66;100.00;98369.25;1752828;81;20856;-65
2021/08/07 03:32:31;;;;;;;5.72;2.05;;;;;;;17.69;100.00;98373.61;1758993;81;21146;-65
2021/08/07 03:35:02;;;;;;;5.25;1.90;;;;;;;17.72;100.00;98380.13;1756891;81;28053;-64
2021/08/07 03:37:34;;;;;;;3.25;1.60;;;;;;;17.74;100.00;98379.59;1759612;81;20934;-64
2021/08/07 03:40:08;;;;;;;6.65;1.82;;;;;;;17.73;100.00;98378.72;1752623;81;20896;-64
2021/08/07 03:42:44;;;;;;;4.53;1.47;;;;;;;17.73;100.00;98383.19;1739537;81;21018;-64
2021/08/07 03:45:15;;;;;;;2.37;1.55;;;;;;;17.75;100.00;98387.98;1744226;81;21464;-64
2021/08/07 03:47:51;;;;;;;8.98;3.45;;;;;;;17.79;100.00;98390.91;1769198;80;20938;-64
2021/08/07 03:50:21;;;;;;;10.43;4.22;;;;;;;17.83;100.00;98383.15;1764826;80;21002;-68
2021/08/07 03:52:50;;;;;;;4.75;2.90;;;;;;;17.82;100.00;98386.28;1764541;80;21013;-65
2021/08/07 03:55:19;;;;;;;3.95;2.22;;;;;;;17.84;100.00;98387.55;1764590;80;20991;-65
2021/08/07 03:57:59;;;;;;;3.60;1.45;;;;;;;17.86;100.00;98401.20;1747076;81;21134;-67
2021/08/07 04:00:41;;;;;;;2.40;1.70;;;;;;;17.91;100.00;98396.98;1780006;80;21007;-65
2021/08/07 04:03:12;;;;;;;5.95;2.00;;;;;;;17.93;100.00;98395.11;1729075;81;21043;-65
2021/08/07 04:05:44;;;;;;;7.25;2.00;;;;;;;17.94;100.00;98394.17;1771510;81;20978;-70
2021/08/07 04:08:15;;;;;;;7.12;1.30;;;;;;;17.95;100.00;98398.57;1745265;81;20865;-70
2021/08/07 04:10:45;;;;;;;2.60;1.52;;;;;;;17.96;100.00;98395.44;1771676;80;21134;-70
2021/08/07 04:13:16;;;;;;;3.62;1.70;;;;;;;18.00;100.00;98391.71;1762202;81;21390;-69
2021/08/07 04:15:47;;;;;;;2.62;1.40;;;;;;;18.03;100.00;98391.09;1748185;81;21378;-70
2021/08/07 04:18:17;;;;;;;4.95;1.77;;;;;;;18.05;100.00;98389.22;1765590;79;21410;-70
2021/08/07 04:20:47;;;;;;;2.67;1.50;;;;;;;18.06;100.00;98388.27;1756601;81;21502;-65
2021/08/07 04:23:15;;;;;;;2.75;1.45;;;;;;;18.05;100.00;98381.68;1730125;81;21147;-66
2021/08/07 04:25:44;;;;;;;8.43;1.80;;;;;;;18.10;100.00;98388.99;1760244;81;21409;-65
2021/08/07 04:28:12;;;;;;;4.62;1.85;;;;;;;18.13;100.00;98384.84;1753570;81;20982;-65
2021/08/07 04:30:43;;;;;;;12.33;1.98;;;;;;;18.15;100.00;98385.16;1757096;80;21562;-65
2021/08/07 04:33:12;;;;;;;5.83;1.42;;;;;;;18.16;100.00;98389.56;1744962;81;21559;-66
2021/08/07 04:35:43;;;;;;;3.35;1.60;;;;;;;18.16;100.00;98399.38;1753027;78;21292;-66
2021/08/07 04:38:14;;;;;;;3.17;1.60;;;;;;;18.16;100.00;98408.24;1761516;79;20947;-66
2021/08/07 04:40:43;;;;;;;3.80;1.80;;;;;;;18.20;100.00;98403.62;1785580;80;20904;-65
2021/08/07 04:43:16;;;;;;;2.08;1.40;;;;;;;18.23;100.00;98407.00;1787426;79;21422;-66
2021/08/07 04:45:45;;;;;;;2.80;1.80;;;;;;;18.26;100.00;98415.33;1771741;79;20928;-66
2021/08/07 04:48:14;;;;;;;3.00;1.42;;;;;;;18.28;100.00;98421.93;1794257;78;21934;-66
2021/08/07 04:50:47;;;;;;;4.80;1.67;;;;;;;18.28;100.00;98419.27;1792018;79;20907;-66
2021/08/07 04:53:16;;;;;;;1.90;1.32;;;;;;;18.28;100.00;98424.59;1789903;80;21450;-65
2021/08/07 04:55:46;;;;;;;3.65;1.60;;;;;;;18.29;100.00;98425.86;1783874;79;20963;-67
2021/08/07 04:58:14;;;;;;;2.25;1.40;;;;;;;18.32;100.00;98440.86;1744354;80;21393;-68
2021/08/07 05:00:42;;;;;;;4.95;1.57;;;;;;;18.31;100.00;98449.34;1776406;78;21732;-69
2021/08/07 05:03:11;;;;;;;3.35;1.65;;;;;;;18.33;100.00;98447.94;1756916;81;21398;-67
2021/08/07 05:05:41;;;;;;;4.90;1.42;;;;;;;18.33;100.00;98447.47;1752661;81;21395;-67
2021/08/07 05:08:13;;;;;;;8.10;1.80;;;;;;;18.32;100.00;98440.86;1783214;80;20844;-68
2021/08/07 05:10:43;;;;;;;9.53;1.57;;;;;;;18.31;100.00;98436.47;1743423;81;20947;-67
2021/08/07 05:13:12;;;;;;;1.70;1.32;;;;;;;18.31;100.00;98431.98;1783219;80;21081;-68
2021/08/07 05:15:41;;;;;;;2.27;1.50;;;;;;;18.34;100.00;98426.97;1764798;81;21412;-68
2021/08/07 05:18:11;;;;;;;1.47;1.30;;;;;;;18.31;100.00;98429.79;1783285;80;20942;-68
2021/08/07 05:20:40;;;;;;;2.87;1.40;;;;;;;18.29;100.00;98424.53;1764871;81;20951;-68
2021/08/07 05:23:10;;;;;;;1.95;1.40;;;;;;;18.29;100.00;98419.19;1783475;80;20914;-68
2021/08/07 05:25:40;;;;;;;1.82;1.30;;;;;;;18.33;100.00;98415.89;1765033;81;21418;-71
2021/08/07 05:28:10;;;;;;;2.50;1.40;;;;;;;18.35;100.00;98422.89;1752207;81;21414;-70
2021/08/07 05:30:40;;;;;;;3.87;1.30;;;;;;;18.42;100.00;98424.78;1783162;79;21379;-70
2021/08/07 05:33:10;;;;;;;2.17;1.50;;;;;;;18.50;100.00;98431.51;1764911;81;21009;-69
2021/08/07 05:35:40;;;;;;;3.35;1.42;;;;;;;18.56;100.00;98431.67;1779933;79;21026;-70
2021/08/07 05:38:10;;;;;;;2.35;1.40;;;;;;;18.60;100.00;98440.40;1732994;81;21165;-70
2021/08/07 05:40:39;;;;;;;3.10;1.40;;;;;;;18.63;100.00;98445.63;1777672;80;21545;-70
2021/08/07 05:43:09;;;;;;;1.72;1.20;;;;;;;18.67;100.00;98445.39;1759007;81;21493;-71
2021/08/07 05:45:39;;;;;;;3.02;1.40;;;;;;;18.68;100.00;98452.47;1758820;81;20974;-70
2021/08/07 05:48:08;;;;;;;2.20;1.40;;;;;;;18.71;100.00;98467.00;1758944;81;21006;-70
2021/08/07 05:50:39;;;;;;;2.10;1.30;;;;;;;18.74;100.00;98461.51;1746881;82;21161;-70
2021/08/07 05:53:09;;;;;;;2.17;1.35;;;;;;;18.81;100.00;98466.94;1754103;80;21089;-70
2021/08/07 05:55:39;;;;;;;4.83;1.42;;;;;;;18.90;100.00;98460.73;1733103;81;21642;-69
2021/08/07 05:58:08;;;;;;;1.37;1.15;;;;;;;18.96;100.00;98459.98;1759035;81;21446;-70
2021/08/07 06:00:42;;;;;;;1.45;1.20;;;;;;;19.04;100.00;98472.48;1777606;80;20994;-70
2021/08/07 06:03:13;;;;;;;1.50;1.17;;;;;;;19.12;100.00;98475.63;1759308;80;21536;-70
2021/08/07 06:05:44;;;;;;;2.17;1.00;;;;;;;19.18;100.00;98473.97;1770750;80;26962;-70
2021/08/07 06:08:15;;;;;;;4.10;1.12;;;;;;;19.27;100.00;98468.63;1772339;81;21392;-70
2021/08/07 06:10:45;;;;;;;3.35;1.52;;;;;;;19.32;100.00;98474.59;1771695;81;20912;-70
2021/08/07 06:13:16;;;;;;;1.65;1.20;;;;;;;19.39;100.00;98468.45;1772129;81;21376;-71
2021/08/07 06:15:45;;;;;;;3.33;1.40;;;;;;;19.45;100.00;98464.14;1771680;81;21138;-70
2021/08/07 06:18:15;;;;;;;1.20;1.10;;;;;;;19.48;100.00;98464.84;1772059;81;21407;-71
2021/08/07 06:20:44;;;;;;;3.50;1.20;;;;;;;19.54;100.00;98462.83;1771747;81;20936;-71
2021/08/07 06:23:13;;;;;;;3.67;1.15;;;;;;;19.56;100.00;98467.63;1771945;81;20968;-71
2021/08/07 06:25:42;;;;;;;4.08;1.30;;;;;;;19.57;100.00;98459.52;1771726;81;20935;-70
2021/08/07 06:28:13;;;;;;;1.47;1.12;;;;;;;19.58;100.00;98458.56;1771751;81;20955;-68
2021/08/07 06:30:48;;;;;;;4.50;1.37;;;;;;;19.64;100.00;98449.34;1770797;81;21039;-69
2021/08/07 06:33:19;;;;;;;3.35;1.10;;;;;;;19.68;100.00;98449.57;1770844;81;20889;-70
2021/08/07 06:35:47;;;;;;;1.42;1.20;;;;;;;19.74;100.00;98447.42;1766783;80;20865;-71
2021/08/07 06:38:16;;;;;;;1.60;1.10;;;;;;;19.82;100.00;98455.03;1734046;80;20983;-71
2021/08/07 06:40:45;;;;;;;1.50;1.10;;;;;;;19.90;100.00;98458.19;1762140;80;21141;-69
2021/08/07 06:43:15;;;;;;;3.35;1.40;;;;;;;19.99;100.00;98460.83;1761843;80;20972;-69
2021/08/07 06:45:49;;;;;;;3.52;1.40;;;;;;;20.09;100.00;98464.73;1733331;80;21423;-69
2021/08/07 06:48:19;;;;;;;1.27;1.10;;;;;;;20.22;100.00;98472.94;1762300;80;20956;-70
2021/08/07 06:50:47;;;;;;;3.10;1.20;;;;;;;20.32;100.00;98466.98;1762475;80;21427;-67
2021/08/07 06:53:18;;;;;;;1.65;1.00;;;;;;;20.47;100.00;98468.47;1761232;80;21071;-69
2021/08/07 06:55:46;;;;;;;2.15;1.40;;;;;;;20.59;100.00;98466.42;1762344;80;20980;-69
2021/08/07 06:58:15;;;;;;;1.22;1.10;;;;;;;20.70;100.00;98460.83;1762172;80;21033;-69
2021/08/07 07:00:45;;;;;;;1.25;1.10;;;;;;;20.80;100.00;98460.29;1762419;80;21594;-70
2021/08/07 07:03:13;;;;;;;1.92;1.25;;;;;;;20.86;100.00;98455.94;1762051;80;21483;-70
2021/08/07 07:05:42;;;;;;;1.10;1.00;;;;;;;20.89;100.00;98443.69;1734204;80;21143;-70
2021/08/07 07:08:11;;;;;;;1.10;0.90;;;;;;;20.92;100.00;98445.72;1762162;80;20936;-70
2021/08/07 07:10:40;;;;;;;1.12;0.82;;;;;;;20.96;100.00;98447.73;1762422;80;21019;-71
2021/08/07 07:13:10;;;;;;;2.20;1.05;;;;;;;21.01;100.00;98448.33;1733969;80;20913;-71
2021/08/07 07:15:40;;;;;;;1.90;1.00;;;;;;;21.05;100.00;98452.08;1762173;80;21039;-71
2021/08/07 07:18:08;;;;;;;1.95;1.00;;;;;;;21.13;100.00;98462.34;1762185;80;21159;-71
2021/08/07 07:20:37;;;;;;;1.57;1.15;;;;;;;21.22;100.00;98477.02;1762083;80;20888;-71
2021/08/07 07:23:06;;;;;;;1.10;1.00;;;;;;;21.32;100.00;98466.19;1762289;80;20888;-70
2021/08/07 07:25:35;;;;;;;1.40;0.90;;;;;;;21.45;100.00;98463.62;1762062;80;20940;-70
2021/08/07 07:28:05;;;;;;;2.20;1.00;;;;;;;21.57;100.00;98468.23;1734215;81;21000;-72
2021/08/07 07:30:34;;;;;;;1.90;0.88;;;;;;;21.66;100.00;98479.73;1762175;80;21159;-72
2021/08/07 07:33:03;;;;;;;1.65;0.98;;;;;;;21.77;100.00;98479.97;1762158;80;21463;-69
2021/08/07 07:35:32;;;;;;;1.55;0.90;;;;;;;21.87;100.00;98473.55;1763877;80;20924;-70
2021/08/07 07:38:00;;;;;;;1.10;0.98;;;;;;;21.97;100.00;98471.52;1783061;79;21477;-71
2021/08/07 07:40:29;;;;;;;1.27;1.00;;;;;;;22.11;100.00;98467.13;1764876;81;20952;-71
2021/08/07 07:42:57;;;;;;;5.08;1.00;;;;;;;22.19;100.00;98464.81;1783135;79;20888;-70
2021/08/07 07:45:26;;;;;;;1.90;1.20;;;;;;;22.27;100.00;98463.39;1764845;81;20928;-71
2021/08/07 07:47:55;;;;;;;1.27;1.10;;;;;;;22.35;100.00;98461.55;1783501;80;20900;-72
2021/08/07 07:50:23;;;;;;;2.25;1.10;;;;;;;22.39;100.00;98456.36;1764837;81;20980;-69
2021/08/07 07:52:53;;;;;;;5.97;0.90;;;;;;;22.43;100.00;98463.26;1783351;79;20951;-72
2021/08/07 07:55:23;;;;;;;5.22;1.02;;;;;;;22.38;100.00;98466.73;1765272;81;21144;-71
2021/08/07 07:57:51;;;;;;;2.90;1.07;;;;;;;22.34;100.00;98462.52;1783434;79;20970;-71
2021/08/07 08:00:22;;;;;;;5.00;1.10;;;;;;;22.33;100.00;98467.98;1764814;81;20976;-70
2021/08/07 08:02:54;;;;;;;1.30;0.93;;;;;;;22.34;100.00;98472.41;1783579;79;20943;-70
2021/08/07 08:05:30;;;;;;;3.90;1.07;;;;;;;22.37;100.00;98467.69;1763663;81;20893;-71
2021/08/07 08:08:03;;;;;;;12.55;2.00;;;;;;;22.37;100.00;98473.06;1783356;80;21002;-71
2021/08/07 08:10:32;;;;;;;1.55;1.10;;;;;;;22.35;100.00;98473.64;1765344;81;21446;-71
2021/08/07 08:13:00;;;;;;;3.83;1.10;;;;;;;;;;1783634;79;20887;-71
2021/08/07 08:15:28;;;;;;;1.65;1.12;;;;;;;22.44;100.00;98471.70;1783285;80;21476;-70
2021/08/07 08:17:56;;;;;;;4.72;1.70;;;;;;;22.52;100.00;98470.72;1767732;80;20925;-71
2021/08/07 08:20:26;;;;;;;2.45;1.22;;;;;;;22.60;100.00;98471.08;1775963;78;21473;-71
2021/08/07 08:22:56;;;;;;;2.98;1.27;;;;;;;22.65;100.00;98479.32;1782057;80;20971;-70
2021/08/07 08:25:25;;;;;;;3.85;1.40;;;;;;;22.75;100.00;98487.20;1779772;80;21014;-68
2021/08/07 08:27:56;;;;;;;2.27;1.40;;;;;;;22.84;100.00;98483.92;1765071;80;21532;-71
2021/08/07 08:30:26;;;;;;;1.70;1.30;;;;;;;22.94;100.00;98490.41;1760312;80;21004;-72
2021/08/07 08:32:56;;;;;;;2.85;1.22;;;;;;;23.06;100.00;98491.42;1757276;81;21138;-72
2021/08/07 08:35:24;;;;;;;8.78;1.12;;;;;;;23.16;98.48;98498.77;1786207;80;20956;-71
2021/08/07 08:37:53;;;;;;;7.50;1.42;;;;;;;23.24;96.19;98500.48;1767813;80;21093;-71
2021/08/07 08:40:23;;;;;;;4.90;1.10;;;;;;;23.35;95.14;98493.02;1728763;82;20977;-71
2021/08/07 08:42:52;;;;;;;1.72;1.37;;;;;;;23.45;96.26;98477.96;1767719;80;21001;-71
2021/08/07 08:45:22;;;;;;;3.92;1.10;;;;;;;23.57;95.46;98468.20;1763118;80;20939;-70
2021/08/07 08:47:51;;;;;;;4.10;1.32;;;;;;;23.66;93.14;98476.16;1749684;82;20986;-71
2021/08/07 08:50:22;;;;;;;6.78;1.25;;;;;;;23.74;92.61;98475.99;1750161;82;21004;-71
2021/08/07 08:52:50;;;;;;;1.60;1.20;;;;;;;23.82;92.84;98474.96;1749690;82;21013;-71
2021/08/07 08:55:19;;;;;;;3.08;1.22;;;;;;;23.91;93.16;98473.93;1762649;80;20931;-71
2021/08/07 08:57:46;;;;;;;4.33;1.20;;;;;;;24.03;94.32;98466.32;1762339;81;21971;-73
2021/08/07 09:00:16;;;;;;;1.72;1.20;;;;;;;24.16;94.30;98475.27;1742604;82;20899;-72
2021/08/07 09:02:46;;;;;;;3.77;1.30;;;;;;;24.26;92.78;98479.03;1762247;81;20926;-71
2021/08/07 09:05:15;;;;;;;4.00;1.52;;;;;;;24.34;90.41;98478.02;1730573;82;20868;-72
2021/08/07 09:07:45;;;;;;;2.85;1.12;;;;;;;24.42;89.25;98479.66;1762340;81;20931;-73
2021/08/07 09:10:13;;;;;;;4.70;1.05;;;;;;;24.49;87.75;98482.28;1730941;83;21129;-72
2021/08/07 09:12:45;;;;;;;1.47;1.02;;;;;;;24.59;85.31;98482.95;1762471;80;21485;-71
2021/08/07 09:15:35;;;;;;;1.80;1.37;;;;;;;24.66;84.94;98475.67;1718445;83;21402;-68
2021/08/07 09:18:21;;;;;;;1.40;1.10;;;;;;;24.77;85.97;98478.43;1762323;80;20927;-70
2021/08/07 09:20:53;;;;;;;1.70;1.10;;;;;;;24.91;87.11;98480.09;1728296;82;20999;-70
2021/08/07 09:23:35;;;;;;;2.40;0.98;;;;;;;25.02;84.00;98468.03;1762457;81;21146;-70
2021/08/07 09:26:23;;;;;;;26.93;1.50;;;;;;;25.11;82.29;98475.95;1730462;83;20955;-71
2021/08/07 09:28:59;;;;;;;3.50;1.10;;;;;;;25.21;82.76;98474.27;1761272;80;21414;-72
2021/08/07 09:31:35;;;;;;;1.35;1.10;;;;;;;25.34;77.28;98471.48;1730331;82;21491;-72
2021/08/07 09:34:20;;;;;;;1.50;1.00;;;;;;;25.46;77.67;98465.62;1762297;80;20883;-70
2021/08/07 09:36:53;;;;;;;4.42;1.00;;;;;;;25.57;76.53;98467.89;1729924;82;21556;-71
2021/08/07 09:39:42;;;;;;;1.77;1.00;;;;;;;25.68;76.87;98475.19;1753634;81;20943;-73
2021/08/07 09:42:11;;;;;;;2.70;1.00;;;;;;;25.79;78.99;98476.55;1752977;81;20975;-73
2021/08/07 09:44:39;;;;;;;3.05;1.15;;;;;;;25.92;77.80;98483.19;1753687;81;20855;-73
2021/08/07 09:47:17;;;;;;;4.28;1.67;;;;;;;25.98;71.44;98472.75;1753613;81;21458;-70
2021/08/07 09:49:47;;;;;;;1.70;1.10;;;;;;;26.03;69.83;98482.73;1726244;81;23426;-72
2021/08/07 09:52:15;;;;;;;1.98;0.93;;;;;;;26.10;69.14;98485.81;1753432;81;20954;-72
2021/08/07 09:54:48;;;;;;;4.40;1.10;;;;;;;26.10;64.56;98479.05;1753391;81;20956;-72
2021/08/07 09:57:29;;;;;;;1.72;1.00;;;;;;;26.06;61.86;98475.37;1725852;81;21418;-70
2021/08/07 09:59:59;;;;;;;1.92;1.00;;;;;;;26.02;63.48;98481.02;1753688;81;20951;-72
2021/08/07 10:02:33;;;;;;;3.47;1.10;;;;;;;26.07;66.17;98486.55;1753378;81;21201;-73
2021/08/07 10:05:06;;;;;;;1.17;1.00;;;;;;;26.14;68.40;98487.28;1753416;81;21596;-71
2021/08/07 10:07:36;;;;;;;1.10;1.00;;;;;;;26.21;70.54;98480.89;1753724;81;21055;-70
2021/08/07 10:10:23;;;;;;;1.20;1.10;;;;;;;26.26;69.90;98477.33;1753281;81;21467;-71
2021/08/07 10:12:56;;;;;;;3.62;1.32;;;;;;;26.36;69.99;98478.33;1753139;81;20955;-72
2021/08/07 10:15:29;;;;;;;4.08;1.10;;;;;;;26.45;70.24;98487.53;1726146;81;21161;-70
2021/08/07 10:18:01;;;;;;;5.42;1.60;;;;;;;26.47;67.63;98485.56;1726217;81;21486;-71
2021/08/07 10:20:29;;;;;;;1.53;0.97;;;;;;;26.46;66.65;98482.49;1753415;81;20958;-68
2021/08/07 10:23:02;;;;;;;3.20;1.10;;;;;;;26.48;65.76;98473.77;1753367;81;20966;-68
2021/08/07 10:25:42;;;;;;;4.55;1.17;;;;;;;26.50;65.90;98478.59;1766813;80;20977;-72
2021/08/07 10:28:10;;;;;;;2.00;1.47;;;;;;;26.60;70.82;98475.00;1771839;81;21149;-71
2021/08/07 10:30:39;;;;;;;3.40;1.35;;;;;;;26.73;72.43;98487.52;1767402;80;20936;-70
2021/08/07 10:33:08;;;;;;;2.20;1.00;;;;;;;26.83;68.86;98488.47;1771784;81;21521;-71
2021/08/07 10:35:37;;;;;;;7.25;3.85;;;;;;;26.90;65.45;98485.13;1768837;80;21048;-70
2021/08/07 10:38:05;;;;;;;15.75;11.30;;;;;;;27.01;66.42;98468.05;1771542;81;21442;-70
2021/08/07 10:40:35;;;;;;;10.20;6.05;;;;;;;27.11;67.02;98461.36;1771588;81;21189;-70
2021/08/07 10:43:04;;;;;;;3.27;2.25;;;;;;;27.17;66.27;98473.02;1790769;79;20911;-69
2021/08/07 10:45:34;;;;;;;3.20;1.55;;;;;;;27.23;67.17;98457.61;1737936;81;21376;-69
2021/08/07 10:48:03;;;;;;;2.12;1.45;;;;;;;27.31;68.13;98463.23;1790623;80;20979;-68
2021/08/07 10:50:34;;;;;;;3.65;1.30;;;;;;;27.42;71.05;98460.45;1784149;80;21003;-70
2021/08/07 10:53:29;;;;;;;4.78;1.42;;;;;;;27.53;71.23;98465.84;1790074;79;21080;-68
2021/08/07 10:55:57;;;;;;;1.57;1.00;;;;;;;27.67;69.59;98465.17;1762152;81;20893;-78
2021/08/07 10:58:43;;;;;;;3.35;1.25;;;;;;;27.78;67.77;98465.09;1790759;79;20889;-70
2021/08/07 11:01:31;;;;;;;1.45;1.10;;;;;;;27.89;65.01;98472.64;1791099;79;20916;-73
2021/08/07 11:04:12;;;;;;;5.03;1.27;;;;;;;27.89;58.62;98455.03;1790601;79;20940;-73
2021/08/07 11:06:49;;;;;;;3.40;1.20;;;;;;;27.81;57.80;98450.78;1790670;80;20991;-71
2021/08/07 11:09:30;;;;;;;6.00;1.30;;;;;;;27.75;55.59;98453.17;1790871;80;21396;-69
2021/08/07 11:12:15;;;;;;;2.90;1.10;;;;;;;27.69;57.27;98446.44;1790988;79;21447;-68
2021/08/07 11:14:52;;;;;;;3.15;1.17;;;;;;;27.71;56.87;98447.66;1790740;80;21003;-68
2021/08/07 11:17:24;;;;;;;2.45;1.20;;;;;;;27.77;59.00;98451.18;1791017;80;20850;-69
2021/08/07 11:20:10;;;;;;;3.85;1.10;;;;;;;27.86;62.08;98441.75;1790051;79;21170;-70
2021/08/07 11:22:44;;;;;;;1.10;1.00;;;;;;;27.98;62.51;98447.11;1790243;80;21677;-69
2021/08/07 11:25:24;;;;;;;1.45;1.02;;;;;;;28.05;60.37;98447.78;1790642;79;21529;-70
2021/08/07 11:27:58;;;;;;;1.77;0.93;;;;;;;28.05;57.18;98459.98;1789964;79;20960;-69
2021/08/07 11:30:39;;;;;;;2.98;1.10;;;;;;;28.03;55.50;98461.97;1790766;80;21451;-68
2021/08/07 11:33:16;;;;;;;5.22;1.30;;;;;;;27.99;55.48;98467.30;1790523;80;21394;-69
2021/08/07 11:35:50;;;;;;;1.42;1.12;;;;;;;28.02;57.95;98462.11;1790913;80;21519;-70
2021/08/07 11:38:25;;;;;;;1.35;0.88;;;;;;;28.04;57.53;98456.91;1766891;80;20965;-69
2021/08/07 11:40:58;;;;;;;1.42;0.90;;;;;;;28.02;56.28;98458.90;1762523;80;20888;-69
2021/08/07 11:43:34;;;;;;;1.30;1.00;;;;;;;27.99;55.65;98460.52;1762287;80;20941;-72
2021/08/07 11:46:12;;;;;;;1.52;0.82;;;;;;;27.95;54.32;98461.80;1762948;80;21157;-73
2021/08/07 11:48:49;;;;;;;1.50;0.88;;;;;;;27.87;53.78;98451.59;1762342;80;20937;-71
2021/08/07 11:51:23;;;;;;;4.22;1.20;;;;;;;27.82;53.68;98452.98;1762597;80;20960;-71
2021/08/07 11:53:51;;;;;;;2.45;1.12;;;;;;;27.74;53.04;98452.80;1761941;80;20916;-72